Time;durP1;ratioP1;P1;durP2;ratioP2;P2;SDS_P1;SDS_P2;PMS_P1;PMS_P2;Temp;Humidity;BMP_temperature;BMP_pressure;BME280_temperature;BME280_humidity;BME280_pressure;Samples;Min_cycle;Max_cycle;Signal;HPM_P1;HPM_P2
2023/11/12 00:02:07;;;;;;;1.60;1.50;;;;;;;21.87;56.92;96757.09;5012164;28;20205;-30
2023/11/12 00:04:34;;;;;;;1.40;1.30;;;;;;;21.87;57.12;96752.81;5011078;28;20233;-26
2023/11/12 00:07:02;;;;;;;1.60;1.50;;;;;;;21.86;57.02;96751.09;5016340;28;20260;-26
2023/11/12 00:09:29;;;;;;;1.40;1.30;;;;;;;21.87;57.20;96763.06;5015731;28;20289;-26
2023/11/12 00:11:56;;;;;;;1.60;1.50;;;;;;;21.87;57.22;96755.38;5015817;28;20202;-28
2023/11/12 00:14:24;;;;;;;2.63;1.70;;;;;;;21.87;57.13;96757.94;5015488;28;20226;-38
2023/11/12 00:16:50;;;;;;;1.67;1.53;;;;;;;21.87;57.29;96749.44;5015606;28;20872;-27
2023/11/12 00:19:17;;;;;;;1.53;1.43;;;;;;;21.86;57.20;96746.00;4998201;28;20205;-26
2023/11/12 00:21:48;;;;;;;1.77;1.67;;;;;;;21.86;57.04;96743.44;5015446;28;20248;-26
2023/11/12 00:24:16;;;;;;;1.47;1.37;;;;;;;21.86;57.18;96730.66;5015465;28;20581;-29
2023/11/12 00:26:43;;;;;;;1.50;1.40;;;;;;;21.86;57.07;96734.88;5015603;28;20206;-26
2023/11/12 00:29:10;;;;;;;1.50;1.40;;;;;;;21.85;57.55;96731.50;5015076;28;20213;-28
2023/11/12 00:31:37;;;;;;;1.70;1.60;;;;;;;21.86;57.04;96714.44;5015712;28;20217;-29
2023/11/12 00:34:03;;;;;;;1.70;1.60;;;;;;;21.86;57.21;96719.53;5015545;28;20265;-33
2023/11/12 00:36:30;;;;;;;1.70;1.60;;;;;;;21.85;57.29;96718.72;5015197;28;20202;-26
2023/11/12 00:38:57;;;;;;;1.60;1.50;;;;;;;21.85;57.16;96708.47;5015196;28;20203;-26
2023/11/12 00:41:24;;;;;;;1.60;1.50;;;;;;;21.79;57.08;96702.41;5015390;28;20572;-28
2023/11/12 00:43:50;;;;;;;1.50;1.40;;;;;;;21.86;57.39;96711.88;5014953;28;20218;-26
2023/11/12 00:46:18;;;;;;;1.50;1.40;;;;;;;21.86;57.34;96722.09;5015085;28;20198;-28
2023/11/12 00:48:45;;;;;;;1.50;1.40;;;;;;;21.87;57.12;96716.16;5014659;28;20210;-26
2023/11/12 00:51:11;;;;;;;1.57;1.47;;;;;;;21.87;57.20;96718.72;5014934;28;20190;-27
2023/11/12 00:53:38;;;;;;;1.70;1.60;;;;;;;21.86;57.13;96717.00;5014479;28;20222;-28
2023/11/12 00:56:07;;;;;;;1.53;1.43;;;;;;;21.86;57.00;96709.31;5015265;28;20198;-26
2023/11/12 00:58:34;;;;;;;1.57;1.43;;;;;;;21.86;57.39;96709.31;5014914;28;20217;-30
2023/11/12 01:01:00;;;;;;;1.60;1.50;;;;;;;21.85;57.33;96713.59;5014507;28;20701;-26
2023/11/12 01:03:32;;;;;;;1.53;1.43;;;;;;;21.85;57.08;96713.59;5014603;28;20214;-26
2023/11/12 01:06:02;;;;;;;1.60;1.50;;;;;;;21.85;57.08;96710.16;5012247;28;20215;-26
2023/11/12 01:08:32;;;;;;;1.70;1.60;;;;;;;21.86;57.07;96706.75;5014227;28;20202;-27
2023/11/12 01:10:58;;;;;;;1.63;1.53;;;;;;;21.85;57.16;96698.25;5012189;28;20294;-32
2023/11/12 01:13:25;;;;;;;1.70;1.53;;;;;;;21.85;56.96;96698.25;5014596;28;20237;-26
2023/11/12 01:15:52;;;;;;;1.60;1.50;;;;;;;21.85;57.16;96700.81;5014515;28;20199;-28
2023/11/12 01:18:20;;;;;;;1.57;1.47;;;;;;;21.85;57.35;96698.25;5014262;28;20268;-27
2023/11/12 01:20:48;;;;;;;1.43;1.33;;;;;;;21.86;57.32;96691.41;5014479;28;20654;-26
2023/11/12 01:23:14;;;;;;;1.60;1.50;;;;;;;21.85;57.28;96694.81;5014505;28;20214;-26
2023/11/12 01:25:41;;;;;;;1.73;1.63;;;;;;;21.85;57.34;96674.34;5013710;28;20205;-27
2023/11/12 01:28:10;;;;;;;1.60;1.50;;;;;;;21.85;56.97;96679.47;5014612;28;20210;-26
2023/11/12 01:30:37;;;;;;;1.53;1.43;;;;;;;21.85;57.11;96690.56;5012235;28;20201;-29
2023/11/12 01:33:04;;;;;;;1.60;1.50;;;;;;;21.84;57.19;96678.59;5014362;28;20219;-26
2023/11/12 01:35:31;;;;;;;1.60;1.50;;;;;;;21.85;57.24;96676.91;5014704;28;20238;-27
2023/11/12 01:37:58;;;;;;;1.57;1.47;;;;;;;21.86;57.18;96673.50;4988969;28;20206;-27
2023/11/12 01:40:25;;;;;;;1.50;1.40;;;;;;;21.85;57.30;96672.66;5013895;28;20261;-31
2023/11/12 01:42:52;;;;;;;1.33;1.23;;;;;;;21.85;57.31;96671.78;5014211;28;20226;-26
2023/11/12 01:45:18;;;;;;;2.03;1.60;;;;;;;21.84;57.11;96667.53;5014226;28;20202;-26
2023/11/12 01:47:45;;;;;;;1.80;1.70;;;;;;;21.84;57.17;96668.38;5013760;28;20245;-26
2023/11/12 01:50:15;;;;;;;1.80;1.70;;;;;;;21.84;57.24;96663.25;4996411;28;20206;-28
2023/11/12 01:52:42;;;;;;;1.23;1.20;;;;;;;21.84;57.16;96665.81;4996971;28;20677;-27
2023/11/12 01:55:09;;;;;;;1.50;1.40;;;;;;;21.84;57.29;96670.09;5013769;28;20237;-27
2023/11/12 01:57:37;;;;;;;1.40;1.30;;;;;;;21.83;57.22;96663.22;4996333;28;20673;-26
2023/11/12 02:00:11;;;;;;;1.50;1.40;;;;;;;21.81;57.00;96658.09;4993246;28;20290;-37
2023/11/12 02:02:38;;;;;;;1.53;1.43;;;;;;;21.84;56.99;96649.63;4995992;28;20301;-39
2023/11/12 02:05:08;;;;;;;1.60;1.50;;;;;;;21.84;57.17;96650.47;5012973;28;20678;-26
2023/11/12 02:07:36;;;;;;;1.50;1.40;;;;;;;21.85;57.25;96654.75;5013745;28;20210;-28
2023/11/12 02:10:11;;;;;;;1.50;1.40;;;;;;;21.85;56.98;96661.56;4996023;28;20203;-26
2023/11/12 02:12:43;;;;;;;1.60;1.50;;;;;;;21.86;57.40;96668.38;4996595;28;20205;-26
2023/11/12 02:15:12;;;;;;;1.70;1.60;;;;;;;21.84;57.16;96655.56;4996939;28;20198;-26
2023/11/12 02:17:38;;;;;;;1.80;1.70;;;;;;;21.84;57.12;96668.38;5013844;28;20206;-27
2023/11/12 02:20:07;;;;;;;1.50;1.40;;;;;;;21.84;57.21;96664.97;5013525;28;20684;-28
2023/11/12 02:22:34;;;;;;;1.67;1.57;;;;;;;21.83;57.11;96656.44;5013432;28;20222;-27
2023/11/12 02:25:01;;;;;;;1.60;1.50;;;;;;;21.82;57.04;96662.38;5013379;28;20265;-26
2023/11/12 02:27:28;;;;;;;1.60;1.50;;;;;;;21.84;56.90;96657.28;5013030;28;20209;-27
2023/11/12 02:29:54;;;;;;;1.60;1.50;;;;;;;21.84;56.97;96657.28;5012605;28;20572;-26
2023/11/12 02:32:21;;;;;;;1.60;1.50;;;;;;;21.85;57.40;96661.56;5013865;28;20230;-26
2023/11/12 02:34:48;;;;;;;1.60;1.50;;;;;;;21.83;56.93;96650.44;5013144;28;20728;-26
2023/11/12 02:37:15;;;;;;;1.50;1.40;;;;;;;21.84;57.49;96660.69;5013246;28;20202;-26
2023/11/12 02:39:41;;;;;;;1.73;1.63;;;;;;;21.84;57.00;96658.13;4995639;28;20214;-26
2023/11/12 02:42:09;;;;;;;1.50;1.40;;;;;;;21.83;56.92;96655.56;5013054;28;20724;-31
2023/11/12 02:44:38;;;;;;;2.03;1.80;;;;;;;21.83;57.22;96658.13;5011260;28;20301;-26
2023/11/12 02:47:08;;;;;;;1.60;1.50;;;;;;;21.83;57.24;96661.53;5012972;28;20205;-29
2023/11/12 02:49:53;;;;;;;1.60;1.50;;;;;;;21.83;57.24;96650.44;5013440;28;20210;-26
2023/11/12 02:52:20;;;;;;;1.40;1.30;;;;;;;21.83;57.02;96663.22;5010903;28;20201;-29
2023/11/12 02:54:47;;;;;;;1.40;1.30;;;;;;;21.82;56.93;96659.84;5012817;28;20592;-26
2023/11/12 02:57:14;;;;;;;1.40;1.30;;;;;;;21.84;56.58;96658.13;5013174;28;20221;-26
2023/11/12 02:59:40;;;;;;;1.50;1.40;;;;;;;21.82;57.00;96657.28;5012565;28;20202;-26
2023/11/12 03:02:07;;;;;;;1.80;1.70;;;;;;;21.84;57.23;96662.41;5012463;28;20276;-26
2023/11/12 03:04:33;;;;;;;1.60;1.50;;;;;;;21.84;57.11;96664.97;5012700;28;20728;-26
2023/11/12 03:07:00;;;;;;;1.30;1.20;;;;;;;21.84;56.97;96659.84;5012822;28;20241;-26
2023/11/12 03:09:27;;;;;;;1.23;1.20;;;;;;;21.85;57.00;96659.00;5012700;28;20617;-30
2023/11/12 03:11:54;;;;;;;1.50;1.40;;;;;;;21.81;57.06;96660.66;5012529;28;20195;-26
2023/11/12 03:14:21;;;;;;;1.67;1.57;;;;;;;21.83;57.14;96653.00;5012542;28;20230;-26
2023/11/12 03:16:51;;;;;;;1.50;1.40;;;;;;;21.82;56.81;96667.50;5012435;28;20206;-27
2023/11/12 03:19:18;;;;;;;1.40;1.30;;;;;;;21.82;56.89;96649.59;5012392;28;20679;-30
2023/11/12 03:21:52;;;;;;;2.57;1.70;;;;;;;21.82;56.76;96649.59;5012494;28;20268;-27
2023/11/12 03:24:19;;;;;;;1.53;1.43;;;;;;;21.81;56.64;96642.75;5012830;28;20221;-26
2023/11/12 03:26:46;;;;;;;1.50;1.40;;;;;;;21.74;56.75;96625.59;5012271;28;20622;-27
2023/11/12 03:29:12;;;;;;;1.40;1.30;;;;;;;21.83;57.16;96642.75;4995169;28;20703;-26
2023/11/12 03:31:39;;;;;;;1.53;1.43;;;;;;;21.82;56.81;96648.72;5012550;28;20627;-26
2023/11/12 03:34:05;;;;;;;1.43;1.33;;;;;;;21.82;56.80;96641.94;5012098;28;20250;-26
2023/11/12 03:36:32;;;;;;;1.50;1.40;;;;;;;21.82;57.12;96635.94;5012381;28;20272;-28
2023/11/12 03:38:58;;;;;;;1.60;1.50;;;;;;;21.82;56.91;96635.94;5012239;28;20744;-26
2023/11/12 03:41:25;;;;;;;1.57;1.47;;;;;;;21.82;56.93;96634.25;5016370;28;20711;-26
2023/11/12 03:43:52;;;;;;;1.50;1.40;;;;;;;21.81;56.90;96637.63;5016371;28;20264;-26
2023/11/12 03:46:19;;;;;;;1.50;1.40;;;;;;;21.81;56.69;96631.66;5016120;28;20202;-29
2023/11/12 03:48:45;;;;;;;1.33;1.23;;;;;;;21.81;57.47;96629.97;5016504;28;20234;-26
2023/11/12 03:51:12;;;;;;;1.60;1.50;;;;;;;21.81;56.76;96626.53;5016415;28;20202;-26
2023/11/12 03:53:39;;;;;;;1.50;1.40;;;;;;;21.81;56.76;96622.28;5016352;28;20229;-28
2023/11/12 03:56:06;;;;;;;1.40;1.30;;;;;;;21.82;56.81;96615.47;5016111;28;20717;-26
2023/11/12 03:58:33;;;;;;;1.60;1.50;;;;;;;21.82;56.88;96606.13;5016581;28;20198;-26
2023/11/12 04:00:59;;;;;;;1.60;1.50;;;;;;;21.82;56.79;96602.69;5015747;28;20619;-27
2023/11/12 04:03:27;;;;;;;1.47;1.37;;;;;;;21.82;56.90;96610.38;5016206;28;20225;-26
2023/11/12 04:05:54;;;;;;;1.67;1.57;;;;;;;21.81;56.58;96606.94;5015748;28;20245;-28
2023/11/12 04:08:21;;;;;;;1.57;1.47;;;;;;;21.81;56.98;96606.94;5015793;28;20198;-26
2023/11/12 04:10:47;;;;;;;1.40;1.30;;;;;;;21.81;56.97;96604.38;5015518;28;20221;-30
2023/11/12 04:13:14;;;;;;;1.40;1.30;;;;;;;21.80;57.01;96605.22;5015760;28;20253;-28
2023/11/12 04:15:40;;;;;;;1.50;1.40;;;;;;;21.80;56.95;96599.25;5016165;28;20229;-26
2023/11/12 04:18:07;;;;;;;1.37;1.27;;;;;;;21.79;56.96;96597.53;5015534;28;20206;-26
2023/11/12 04:20:34;;;;;;;1.97;1.70;;;;;;;21.80;56.92;96601.81;5015979;28;20673;-27
2023/11/12 04:23:00;;;;;;;1.60;1.50;;;;;;;21.76;56.85;96593.22;5015404;28;20654;-27
2023/11/12 04:25:27;;;;;;;1.63;1.53;;;;;;;21.81;56.68;96598.41;5015946;28;20198;-26
2023/11/12 04:27:53;;;;;;;1.37;1.27;;;;;;;21.80;56.91;96594.13;5015437;28;20233;-26
2023/11/12 04:30:20;;;;;;;1.40;1.30;;;;;;;21.80;56.90;96595.00;5016170;28;20605;-30
2023/11/12 04:32:47;;;;;;;1.60;1.50;;;;;;;21.81;56.95;96593.28;5015526;28;20202;-26
2023/11/12 04:35:13;;;;;;;1.63;1.53;;;;;;;21.81;56.94;96590.72;5013165;28;20198;-26
2023/11/12 04:37:40;;;;;;;1.47;1.37;;;;;;;21.81;56.81;96577.94;5015413;28;20198;-26
2023/11/12 04:40:09;;;;;;;1.50;1.40;;;;;;;21.75;56.78;96565.94;5015047;28;20212;-26
2023/11/12 04:42:36;;;;;;;1.67;1.50;;;;;;;21.69;56.62;96555.59;5014982;28;20703;-26
2023/11/12 04:45:02;;;;;;;1.60;1.50;;;;;;;21.78;56.95;96568.53;5014922;28;20205;-26
2023/11/12 04:47:29;;;;;;;1.73;1.50;;;;;;;21.77;56.87;96558.28;5015321;28;20735;-26
2023/11/12 04:49:56;;;;;;;1.60;1.50;;;;;;;21.78;57.16;96553.19;5014718;28;20221;-26
2023/11/12 04:52:22;;;;;;;1.43;1.33;;;;;;;21.78;56.86;96557.44;4996594;28;20222;-26
2023/11/12 04:54:50;;;;;;;1.60;1.50;;;;;;;21.78;56.66;96555.75;5014497;28;20225;-27
2023/11/12 04:57:17;;;;;;;1.60;1.50;;;;;;;21.78;56.66;96548.06;5007808;28;20202;-26
2023/11/12 04:59:43;;;;;;;1.57;1.47;;;;;;;21.79;56.92;96547.22;4997584;28;20206;-30
2023/11/12 05:02:13;;;;;;;1.40;1.30;;;;;;;21.78;56.71;96537.84;5014840;28;20668;-26
2023/11/12 05:04:43;;;;;;;1.50;1.40;;;;;;;21.79;56.79;96537.00;5014804;28;20701;-28
2023/11/12 05:07:09;;;;;;;1.50;1.40;;;;;;;21.79;56.77;96547.22;5014763;28;20634;-26
2023/11/12 05:09:36;;;;;;;1.50;1.40;;;;;;;21.79;57.00;96552.34;5014809;28;20237;-29
2023/11/12 05:12:03;;;;;;;1.50;1.40;;;;;;;21.78;56.80;96554.88;5014570;28;20198;-27
2023/11/12 05:14:29;;;;;;;1.50;1.40;;;;;;;21.78;56.92;96555.75;5014534;28;20280;-26
2023/11/12 05:16:56;;;;;;;1.60;1.50;;;;;;;21.78;56.88;96550.63;5014361;28;20202;-28
2023/11/12 05:19:22;;;;;;;1.70;1.60;;;;;;;21.78;56.78;96544.66;5014818;28;20205;-26
2023/11/12 05:21:49;;;;;;;1.60;1.50;;;;;;;21.78;56.85;96544.66;5014692;28;20265;-27
2023/11/12 05:24:15;;;;;;;1.50;1.40;;;;;;;21.77;56.84;96541.25;5014452;28;20280;-27
2023/11/12 05:26:42;;;;;;;2.00;1.30;;;;;;;21.78;56.63;96547.19;5014229;28;20584;-26
2023/11/12 05:29:09;;;;;;;1.60;1.50;;;;;;;21.78;56.64;96536.97;5014126;28;20206;-26
2023/11/12 05:31:36;;;;;;;1.60;1.50;;;;;;;21.79;56.92;96544.66;5015053;28;20302;-26
2023/11/12 05:34:02;;;;;;;1.60;1.50;;;;;;;21.79;56.52;96537.00;5014483;28;20249;-26
2023/11/12 05:36:29;;;;;;;1.40;1.30;;;;;;;21.79;56.69;96542.09;5014386;28;20293;-28
2023/11/12 05:38:56;;;;;;;1.40;1.30;;;;;;;21.77;56.77;96533.56;5010742;28;20202;-26
2023/11/12 05:41:22;;;;;;;1.40;1.30;;;;;;;21.78;56.58;96542.97;5014370;28;20206;-26
2023/11/12 05:43:50;;;;;;;1.70;1.60;;;;;;;21.80;56.59;96548.09;5014429;28;20572;-28
2023/11/12 05:46:17;;;;;;;1.60;1.50;;;;;;;21.78;56.53;96545.50;5014621;28;20199;-27
2023/11/12 05:48:43;;;;;;;1.27;1.20;;;;;;;21.79;56.49;96547.22;5014023;28;20206;-26
2023/11/12 05:51:10;;;;;;;1.60;1.50;;;;;;;21.79;56.61;96541.28;5014329;28;20206;-26
2023/11/12 05:53:37;;;;;;;1.67;1.57;;;;;;;21.79;56.60;96549.78;5014241;28;20218;-26
2023/11/12 05:56:04;;;;;;;1.30;1.20;;;;;;;21.79;56.58;96542.09;5013789;28;20641;-26
2023/11/12 05:58:30;;;;;;;1.50;1.40;;;;;;;21.79;56.62;96542.09;4996153;28;20198;-26
2023/11/12 06:00:59;;;;;;;1.50;1.40;;;;;;;21.79;56.42;96542.09;4996402;28;20238;-35
2023/11/12 06:03:26;;;;;;;1.40;1.30;;;;;;;21.80;56.33;96546.41;5013765;28;20641;-30
2023/11/12 06:05:52;;;;;;;1.70;1.60;;;;;;;21.80;56.38;96546.41;5014086;28;20199;-26
2023/11/12 06:08:19;;;;;;;1.50;1.40;;;;;;;21.79;56.13;96541.28;5012749;28;20206;-26
2023/11/12 06:10:45;;;;;;;1.57;1.47;;;;;;;21.80;56.57;96537.88;5013979;28;20237;-26
2023/11/12 06:13:12;;;;;;;1.40;1.30;;;;;;;21.79;56.63;96546.38;5013143;28;20228;-28
2023/11/12 06:15:40;;;;;;;1.50;1.40;;;;;;;21.79;56.33;96552.34;5013971;28;20213;-27
2023/11/12 06:18:07;;;;;;;2.43;1.47;;;;;;;21.79;56.40;96546.38;5013475;28;20202;-31
2023/11/12 06:20:33;;;;;;;1.70;1.60;;;;;;;21.78;56.55;96554.88;5013450;28;20206;-26
2023/11/12 06:23:00;;;;;;;1.50;1.40;;;;;;;21.77;56.45;96554.03;5012710;28;20766;-26
2023/11/12 06:25:27;;;;;;;1.40;1.30;;;;;;;21.70;56.52;96539.41;5013795;28;20553;-28
2023/11/12 06:27:53;;;;;;;1.40;1.30;;;;;;;21.76;56.44;96557.41;5013566;28;20244;-27
2023/11/12 06:30:20;;;;;;;1.60;1.50;;;;;;;21.77;56.35;96559.16;5013351;28;20210;-26
2023/11/12 06:32:47;;;;;;;1.33;1.27;;;;;;;21.78;56.29;96560.00;5013457;28;20202;-28
2023/11/12 06:35:14;;;;;;;1.50;1.40;;;;;;;21.77;56.35;96568.50;5013377;28;20198;-26
2023/11/12 06:37:40;;;;;;;2.30;1.60;;;;;;;21.78;56.44;96563.41;5013016;28;20230;-26
2023/11/12 06:40:08;;;;;;;1.40;1.30;;;;;;;21.78;56.41;96568.53;5012906;28;20323;-28
2023/11/12 06:42:34;;;;;;;1.63;1.33;;;;;;;21.79;56.50;96569.41;5012815;28;20222;-26
2023/11/12 06:45:01;;;;;;;1.30;1.20;;;;;;;21.79;56.37;96566.84;5013216;28;20305;-28
2023/11/12 06:47:27;;;;;;;1.50;1.40;;;;;;;21.79;56.35;96572.78;5004771;28;20695;-28
2023/11/12 06:49:54;;;;;;;1.60;1.50;;;;;;;21.80;56.48;96577.09;5012415;28;20235;-26
2023/11/12 06:52:23;;;;;;;1.50;1.40;;;;;;;21.80;56.53;96581.34;5012893;28;20556;-26
2023/11/12 06:54:50;;;;;;;1.63;1.53;;;;;;;21.78;56.40;96578.75;5012796;28;20226;-28
2023/11/12 06:57:16;;;;;;;1.57;1.47;;;;;;;21.78;56.35;96586.44;5012767;28;20214;-27
2023/11/12 06:59:43;;;;;;;1.50;1.40;;;;;;;21.79;56.23;96588.13;4995158;28;20679;-26
2023/11/12 07:02:10;;;;;;;1.30;1.20;;;;;;;21.78;56.26;96599.22;5012357;28;20222;-26
2023/11/12 07:04:36;;;;;;;1.50;1.40;;;;;;;21.79;55.97;96600.94;5012630;28;20226;-28
2023/11/12 07:07:05;;;;;;;1.50;1.40;;;;;;;21.80;56.28;96601.81;5013126;28;20617;-26
2023/11/12 07:09:42;;;;;;;1.60;1.50;;;;;;;21.77;56.33;96602.63;5012960;28;20557;-26
2023/11/12 07:12:08;;;;;;;1.40;1.30;;;;;;;21.80;56.24;96614.59;5012613;28;20256;-28
2023/11/12 07:14:35;;;;;;;1.50;1.40;;;;;;;21.80;56.15;96612.03;5012397;28;20317;-28
2023/11/12 07:17:02;;;;;;;2.53;1.47;;;;;;;21.80;56.29;96622.25;5012588;28;20347;-26
2023/11/12 07:19:30;;;;;;;1.60;1.50;;;;;;;21.79;56.53;96618.84;5012797;28;20653;-26
2023/11/12 07:21:57;;;;;;;1.50;1.40;;;;;;;21.80;56.49;96627.38;5008358;28;20625;-26
2023/11/12 07:24:23;;;;;;;1.40;1.30;;;;;;;21.79;56.43;96629.06;4995101;28;20577;-27
2023/11/12 07:26:50;;;;;;;1.10;1.10;;;;;;;21.78;56.52;96627.34;5012572;28;20206;-26
2023/11/12 07:29:16;;;;;;;1.30;1.20;;;;;;;21.78;56.56;96623.94;5012139;28;20280;-26
2023/11/12 07:31:43;;;;;;;2.00;1.50;;;;;;;21.71;56.33;96611.03;5012621;28;20198;-26
2023/11/12 07:34:09;;;;;;;1.40;1.30;;;;;;;21.78;56.42;96629.91;5012496;28;20236;-28
2023/11/12 07:36:36;;;;;;;1.47;1.37;;;;;;;21.79;56.46;96620.56;5012589;28;20217;-26
2023/11/12 07:39:03;;;;;;;1.40;1.30;;;;;;;21.80;56.00;96624.81;5012643;28;20260;-26
2023/11/12 07:41:33;;;;;;;1.40;1.30;;;;;;;21.79;56.18;96626.50;5012585;28;20634;-29
2023/11/12 07:44:00;;;;;;;1.63;1.53;;;;;;;21.79;56.30;96623.13;5012117;28;20225;-30
2023/11/12 07:46:26;;;;;;;1.40;1.30;;;;;;;21.79;56.26;96623.94;5012584;28;20260;-26
2023/11/12 07:48:53;;;;;;;1.50;1.40;;;;;;;21.79;56.32;96618.00;5012298;28;20579;-26
2023/11/12 07:51:21;;;;;;;1.40;1.30;;;;;;;21.79;56.46;96620.56;5012505;28;20288;-29
2023/11/12 07:53:49;;;;;;;1.50;1.40;;;;;;;21.79;56.50;96620.56;5012728;28;20226;-29
2023/11/12 07:56:15;;;;;;;1.60;1.50;;;;;;;21.76;56.56;96612.84;5012065;28;20202;-27
2023/11/12 07:58:42;;;;;;;1.57;1.47;;;;;;;21.77;56.51;96617.97;5011943;28;20210;-26
2023/11/12 08:01:11;;;;;;;1.50;1.40;;;;;;;21.76;56.43;96623.91;5012327;28;20206;-29
2023/11/12 08:03:37;;;;;;;1.50;1.40;;;;;;;21.77;56.28;96633.31;5012340;28;20666;-26
2023/11/12 08:06:04;;;;;;;1.60;1.50;;;;;;;21.75;56.61;96629.88;5012050;28;20207;-26
2023/11/12 08:08:31;;;;;;;1.37;1.27;;;;;;;21.77;56.29;96632.44;5011976;28;20213;-29
2023/11/12 08:11:00;;;;;;;1.47;1.37;;;;;;;21.77;56.36;96629.91;5012460;28;20673;-26
2023/11/12 08:13:27;;;;;;;1.43;1.33;;;;;;;21.77;56.29;96640.13;5011108;28;20589;-26
2023/11/12 08:15:53;;;;;;;1.33;1.23;;;;;;;21.77;56.68;96638.44;5012156;28;20661;-26
2023/11/12 08:18:20;;;;;;;1.63;1.53;;;;;;;21.78;56.32;96646.94;5011694;28;20205;-26
2023/11/12 08:20:48;;;;;;;1.50;1.40;;;;;;;21.78;56.37;96642.69;5011959;28;20270;-26
2023/11/12 08:23:14;;;;;;;1.60;1.50;;;;;;;21.78;56.43;96646.94;5011524;28;20234;-26
2023/11/12 08:25:42;;;;;;;1.50;1.40;;;;;;;21.78;56.64;96646.94;5012490;28;20199;-26
2023/11/12 08:28:08;;;;;;;1.50;1.40;;;;;;;21.77;56.51;96651.22;5014938;28;20206;-26
2023/11/12 08:30:35;;;;;;;1.47;1.37;;;;;;;21.78;56.61;96660.59;5015643;28;20677;-26
2023/11/12 08:33:02;;;;;;;1.47;1.37;;;;;;;21.78;57.13;96644.38;5015511;28;20627;-28
2023/11/12 08:35:30;;;;;;;1.50;1.40;;;;;;;21.76;56.58;96654.59;5015149;28;20238;-26
2023/11/12 08:37:59;;;;;;;1.50;1.40;;;;;;;21.76;56.45;96654.59;5015434;28;20309;-26
2023/11/12 08:40:26;;;;;;;1.37;1.27;;;;;;;21.77;56.68;96661.44;5015596;28;20248;-27
2023/11/12 08:42:53;;;;;;;1.30;1.20;;;;;;;21.77;56.56;96645.25;5015649;28;20226;-27
2023/11/12 08:45:20;;;;;;;1.40;1.30;;;;;;;21.78;56.28;96646.94;5015183;28;20214;-27
2023/11/12 08:47:46;;;;;;;1.50;1.40;;;;;;;21.77;56.41;96646.09;5015170;28;20209;-29
2023/11/12 08:50:13;;;;;;;1.60;1.50;;;;;;;21.77;56.41;96643.53;5014725;28;20198;-28
2023/11/12 08:52:39;;;;;;;1.47;1.37;;;;;;;21.78;56.48;96645.25;5007593;28;20198;-26
2023/11/12 08:55:06;;;;;;;1.43;1.33;;;;;;;21.78;56.43;96650.38;5015874;28;20198;-26
2023/11/12 08:57:34;;;;;;;1.50;1.40;;;;;;;21.78;56.32;96645.25;5014613;28;20293;-26
2023/11/12 09:00:05;;;;;;;1.60;1.50;;;;;;;21.77;56.45;96642.69;5015189;28;20234;-26
2023/11/12 09:02:32;;;;;;;1.40;1.30;;;;;;;21.77;56.61;96646.09;5014580;28;20507;-26
2023/11/12 09:05:01;;;;;;;1.40;1.30;;;;;;;21.77;56.47;96651.22;5015100;28;20627;-26
2023/11/12 09:07:28;;;;;;;1.40;1.30;;;;;;;21.77;56.59;96653.78;5015098;28;20202;-27
2023/11/12 09:09:55;;;;;;;1.50;1.40;;;;;;;21.73;56.68;96651.13;5014814;28;20623;-27
2023/11/12 09:12:22;;;;;;;1.53;1.43;;;;;;;21.76;56.69;96652.03;5014942;28;20213;-26
2023/11/12 09:14:49;;;;;;;1.60;1.50;;;;;;;21.64;56.56;96644.16;5014133;28;20563;-26
2023/11/12 09:17:16;;;;;;;1.57;1.47;;;;;;;21.76;56.44;96656.31;5014743;28;20194;-26
2023/11/12 09:19:43;;;;;;;1.50;1.30;;;;;;;21.78;56.47;96659.72;4997133;28;20226;-26
2023/11/12 09:22:10;;;;;;;1.60;1.50;;;;;;;21.77;56.40;96652.91;5014838;28;20203;-28
2023/11/12 09:24:37;;;;;;;1.60;1.50;;;;;;;21.77;56.25;96656.34;5014151;28;20670;-33
2023/11/12 09:27:18;;;;;;;1.50;1.40;;;;;;;21.77;56.38;96660.59;5014051;28;20194;-43
2023/11/12 09:29:45;;;;;;;1.17;1.17;;;;;;;21.76;56.35;96657.16;5008867;28;20576;-26
2023/11/12 09:32:12;;;;;;;1.40;1.30;;;;;;;21.78;56.55;96665.72;5014320;28;20289;-27
2023/11/12 09:34:39;;;;;;;1.60;1.50;;;;;;;21.77;56.61;96653.78;5014194;28;20217;-26
2023/11/12 09:37:05;;;;;;;1.47;1.33;;;;;;;21.78;56.52;96657.19;4996565;28;20202;-26
2023/11/12 09:39:35;;;;;;;1.30;1.20;;;;;;;21.78;56.52;96665.72;5013881;28;20218;-26
2023/11/12 09:42:02;;;;;;;1.50;1.40;;;;;;;21.77;56.60;96661.44;5014264;28;20198;-26
2023/11/12 09:44:30;;;;;;;1.57;1.47;;;;;;;21.76;56.76;96664.81;4980185;28;20652;-28
2023/11/12 09:47:29;;;;;;;1.27;1.20;;;;;;;21.76;56.62;96667.38;5014025;28;20272;-26
2023/11/12 09:49:56;;;;;;;1.30;1.20;;;;;;;21.74;56.71;96669.06;4994118;28;20195;-26
2023/11/12 09:52:23;;;;;;;1.50;1.40;;;;;;;21.77;56.69;96663.13;4979920;28;20248;-29
2023/11/12 09:54:49;;;;;;;1.37;1.30;;;;;;;21.73;56.45;96651.13;5013893;28;20218;-28
2023/11/12 09:57:17;;;;;;;1.50;1.40;;;;;;;21.77;56.47;96671.69;4980491;28;20289;-26
2023/11/12 09:59:44;;;;;;;1.50;1.40;;;;;;;21.77;56.61;96665.69;4996203;28;20253;-26
2023/11/12 10:02:10;;;;;;;1.60;1.50;;;;;;;21.76;56.57;96669.09;5014320;28;20263;-26
2023/11/12 10:04:41;;;;;;;1.50;1.40;;;;;;;21.78;56.67;96667.41;5013178;28;20237;-26
2023/11/12 10:07:10;;;;;;;1.40;1.30;;;;;;;21.77;56.68;96671.69;4996448;28;20198;-27
2023/11/12 10:09:37;;;;;;;1.43;1.33;;;;;;;21.77;56.53;96664.00;5013749;28;20264;-26
2023/11/12 10:12:04;;;;;;;1.60;1.50;;;;;;;21.78;56.54;96664.84;5013858;28;20254;-30
2023/11/12 10:14:30;;;;;;;1.40;1.30;;;;;;;21.78;57.22;96662.28;5013353;28;20658;-26
2023/11/12 10:17:07;;;;;;;1.40;1.30;;;;;;;21.78;56.63;96672.53;5013589;28;20204;-26
2023/11/12 10:19:37;;;;;;;1.30;1.30;;;;;;;21.70;57.18;96655.34;5013696;28;20693;-26
2023/11/12 10:22:06;;;;;;;1.53;1.43;;;;;;;21.76;56.56;96669.94;5013810;28;20244;-29
2023/11/12 10:24:45;;;;;;;1.40;1.30;;;;;;;21.76;56.89;96677.59;5013323;28;20708;-27
2023/11/12 10:27:14;;;;;;;1.40;1.30;;;;;;;21.76;56.67;96677.59;5008716;28;20202;-26
2023/11/12 10:29:43;;;;;;;1.50;1.40;;;;;;;21.76;56.47;96676.78;5013110;28;20198;-26
2023/11/12 10:32:23;;;;;;;1.60;1.50;;;;;;;21.76;56.62;96669.94;4991520;28;20600;-26
2023/11/12 10:34:49;;;;;;;1.50;1.40;;;;;;;21.76;56.48;96669.94;5007604;28;20249;-27
2023/11/12 10:37:19;;;;;;;1.10;1.10;;;;;;;21.71;56.71;96662.16;5013215;28;20205;-26
2023/11/12 10:39:46;;;;;;;1.40;1.30;;;;;;;21.77;56.77;96670.81;5013019;28;20212;-26
2023/11/12 10:42:24;;;;;;;1.20;1.20;;;;;;;21.77;56.68;96666.56;5012654;28;20248;-28
2023/11/12 10:44:54;;;;;;;1.10;1.10;;;;;;;21.77;56.53;96665.69;5013125;28;20226;-26
2023/11/12 10:47:23;;;;;;;1.60;1.50;;;;;;;21.77;56.72;96666.56;5012978;28;20584;-26
2023/11/12 10:49:50;;;;;;;1.60;1.50;;;;;;;21.78;56.79;96672.53;5004127;28;20260;-26
2023/11/12 10:52:17;;;;;;;1.57;1.47;;;;;;;21.76;56.62;96659.72;5013308;28;20230;-26
2023/11/12 10:54:45;;;;;;;1.43;1.33;;;;;;;21.77;56.75;96658.91;4963646;28;20218;-26
2023/11/12 10:57:12;;;;;;;1.57;1.47;;;;;;;21.76;56.73;96659.72;4995928;28;20209;-28
2023/11/12 10:59:39;;;;;;;1.50;1.40;;;;;;;21.76;56.69;96657.16;5012918;28;20202;-26
2023/11/12 11:02:10;;;;;;;1.60;1.50;;;;;;;21.76;56.89;96657.16;5012874;28;20202;-28
2023/11/12 11:04:37;;;;;;;1.50;1.40;;;;;;;21.76;56.59;96652.03;4995306;28;20324;-26
2023/11/12 11:07:04;;;;;;;1.50;1.40;;;;;;;21.76;56.86;96659.72;5013143;28;20202;-28
2023/11/12 11:09:31;;;;;;;1.63;1.30;;;;;;;21.76;56.81;96649.47;5012699;28;20652;-28
2023/11/12 11:11:58;;;;;;;1.50;1.40;;;;;;;21.75;56.56;96655.44;5013085;28;20562;-26
2023/11/12 11:14:27;;;;;;;1.30;1.20;;;;;;;21.77;56.60;96655.47;4995363;28;20280;-35
2023/11/12 11:16:54;;;;;;;1.37;1.27;;;;;;;21.76;56.59;96659.72;5004757;28;20689;-26
2023/11/12 11:19:48;;;;;;;1.60;1.50;;;;;;;21.77;56.63;96648.66;5012755;28;20205;-26
2023/11/12 11:22:24;;;;;;;1.50;1.40;;;;;;;21.77;56.68;96658.91;5007783;28;20191;-26
2023/11/12 11:24:54;;;;;;;1.60;1.50;;;;;;;21.76;56.79;96658.88;5011983;28;20264;-29
2023/11/12 11:27:24;;;;;;;1.40;1.30;;;;;;;21.77;56.87;96663.13;5012715;28;20209;-26
2023/11/12 11:30:16;;;;;;;1.50;1.40;;;;;;;21.77;56.75;96664.00;5012833;28;20202;-26
2023/11/12 11:32:51;;;;;;;1.40;1.30;;;;;;;21.77;56.77;96673.38;5012536;28;20198;-27
2023/11/12 11:35:18;;;;;;;1.20;1.20;;;;;;;21.75;56.86;96672.47;5012456;28;20201;-26
2023/11/12 11:38:11;;;;;;;1.10;1.10;;;;;;;21.75;56.98;96672.47;5012197;28;20598;-27